createdAt,value
2023-01-09T00:00:28.817Z,22.23
2023-01-09T00:02:55.723Z,22.90
2023-01-09T00:05:24.650Z,21.58
2023-01-09T00:07:51.287Z,20.23
2023-01-09T00:10:17.935Z,20.38
2023-01-09T00:12:44.612Z,19.15
2023-01-09T00:15:11.836Z,23.83
2023-01-09T00:17:39.094Z,23.77
2023-01-09T00:20:07.613Z,19.88
2023-01-09T00:22:34.331Z,21.65
2023-01-09T00:25:04.223Z,19.98
2023-01-09T00:27:32.697Z,20.85
2023-01-09T00:29:59.513Z,18.55
2023-01-09T00:32:26.940Z,19.63
2023-01-09T00:34:54.592Z,19.73
2023-01-09T00:37:21.672Z,21.23
2023-01-09T00:39:48.292Z,21.67
2023-01-09T00:42:21.904Z,23.33
2023-01-09T00:47:25.427Z,23.00
2023-01-09T00:49:53.563Z,19.58
2023-01-09T00:52:22.990Z,18.88
2023-01-09T00:54:50.356Z,17.25
2023-01-09T00:57:17.094Z,18.00
2023-01-09T00:59:44.243Z,16.38
2023-01-09T01:02:13.379Z,19.88
2023-01-09T01:04:58.740Z,18.27
2023-01-09T01:07:41.208Z,18.48
2023-01-09T01:10:11.631Z,16.95
2023-01-09T01:12:39.527Z,17.95
2023-01-09T01:15:09.891Z,19.05
2023-01-09T01:17:38.305Z,15.50
2023-01-09T01:20:07.729Z,19.08
2023-01-09T01:22:34.642Z,20.55
2023-01-09T01:25:01.431Z,19.60
2023-01-09T01:27:28.737Z,20.40
2023-01-09T01:29:55.780Z,18.83
2023-01-09T01:32:22.984Z,18.05
2023-01-09T01:34:49.690Z,16.80
2023-01-09T01:37:16.351Z,17.38
2023-01-09T01:39:43.035Z,19.23
2023-01-09T01:42:13.028Z,17.98
2023-01-09T01:45:08.700Z,18.27
2023-01-09T01:47:44.451Z,18.42
2023-01-09T01:50:37.345Z,20.00
2023-01-09T01:53:34.429Z,17.33
2023-01-09T01:56:11.902Z,18.85
2023-01-09T01:58:43.527Z,23.20
2023-01-09T02:01:10.839Z,17.15
2023-01-09T02:03:39.985Z,18.10
2023-01-09T02:06:09.808Z,17.98
2023-01-09T02:08:36.837Z,18.75
2023-01-09T02:11:05.038Z,17.35
2023-01-09T02:13:34.931Z,17.77
2023-01-09T02:16:23.906Z,16.98
2023-01-09T02:19:02.808Z,16.48
2023-01-09T02:21:41.467Z,16.25
2023-01-09T02:24:11.002Z,18.58
2023-01-09T02:27:13.914Z,17.02
2023-01-09T02:29:59.445Z,16.65
2023-01-09T02:32:53.416Z,16.50
2023-01-09T02:35:39.987Z,16.55
2023-01-09T02:38:12.696Z,18.60
2023-01-09T02:40:54.986Z,15.10
2023-01-09T02:43:22.680Z,16.77
2023-01-09T02:45:49.262Z,17.60
2023-01-09T02:48:16.062Z,17.25
2023-01-09T02:50:53.082Z,17.77
2023-01-09T02:53:37.755Z,16.23
2023-01-09T02:56:46.267Z,15.52
2023-01-09T02:59:29.303Z,16.88
2023-01-09T03:02:25.095Z,14.17
2023-01-09T03:05:12.478Z,16.65
2023-01-09T03:07:48.418Z,15.35
2023-01-09T03:10:20.913Z,16.25
2023-01-09T03:12:51.347Z,17.10
2023-01-09T03:15:19.741Z,16.48
2023-01-09T03:17:48.604Z,17.60
2023-01-09T03:20:21.440Z,16.67
2023-01-09T03:23:00.697Z,15.60
2023-01-09T03:25:29.313Z,16.77
2023-01-09T03:28:05.189Z,18.35
2023-01-09T03:30:33.792Z,18.20
2023-01-09T03:33:00.637Z,17.35
2023-01-09T03:35:29.796Z,18.63
2023-01-09T03:37:56.466Z,15.05
2023-01-09T03:40:25.381Z,16.83
2023-01-09T03:42:51.998Z,17.05
2023-01-09T03:45:20.889Z,18.45
2023-01-09T03:47:47.519Z,15.80
2023-01-09T03:50:14.260Z,16.10
2023-01-09T03:52:41.474Z,21.35
2023-01-09T03:55:08.766Z,16.77
2023-01-09T03:57:35.384Z,15.88
2023-01-09T04:00:02.279Z,17.00
2023-01-09T04:02:28.931Z,19.60
2023-01-09T04:04:55.521Z,16.67
2023-01-09T04:07:24.400Z,18.63
2023-01-09T04:09:51.165Z,16.48
2023-01-09T04:12:17.787Z,17.67
2023-01-09T04:14:46.852Z,15.40
2023-01-09T04:17:13.489Z,17.05
2023-01-09T04:19:40.065Z,17.02
2023-01-09T04:22:06.797Z,18.60
2023-01-09T04:24:33.492Z,18.65
2023-01-09T04:27:02.505Z,17.40
2023-01-09T04:29:29.167Z,18.67
2023-01-09T04:31:55.812Z,18.50
2023-01-09T04:34:25.919Z,16.60
2023-01-09T04:36:53.362Z,17.27
2023-01-09T04:39:24.397Z,18.02
2023-01-09T04:41:51.093Z,20.02
2023-01-09T04:44:19.466Z,18.65
2023-01-09T04:46:46.213Z,20.45
2023-01-09T04:49:13.075Z,17.35
2023-01-09T04:51:44.525Z,19.25
2023-01-09T04:54:11.577Z,21.20
2023-01-09T04:56:38.449Z,18.92
2023-01-09T04:59:08.581Z,20.55
2023-01-09T05:01:35.809Z,23.30
2023-01-09T05:04:03.071Z,20.98
2023-01-09T05:06:32.633Z,20.77
2023-01-09T05:08:59.316Z,19.65
2023-01-09T05:11:25.928Z,20.45
2023-01-09T05:13:54.881Z,20.05
2023-01-09T05:16:22.033Z,19.58
2023-01-09T05:18:48.749Z,22.30
2023-01-09T05:21:15.487Z,19.90
2023-01-09T05:23:44.468Z,17.38
2023-01-09T05:26:11.067Z,19.05
2023-01-09T05:28:37.748Z,19.17
2023-01-09T05:31:04.342Z,18.00
2023-01-09T05:33:30.925Z,19.48
2023-01-09T05:35:57.671Z,20.27
2023-01-09T05:38:24.282Z,15.90
2023-01-09T05:40:50.905Z,19.95
2023-01-09T05:43:17.448Z,22.20
2023-01-09T05:45:44.079Z,23.52
2023-01-09T05:48:10.690Z,27.58
2023-01-09T05:50:37.284Z,24.80
2023-01-09T05:53:06.737Z,21.58
2023-01-09T05:55:33.616Z,23.42
2023-01-09T05:58:00.359Z,31.13
2023-01-09T06:00:29.894Z,25.83
2023-01-09T06:02:56.560Z,22.10
2023-01-09T06:05:23.526Z,23.95
2023-01-09T06:07:50.153Z,22.08
2023-01-09T06:10:21.820Z,22.17
2023-01-09T06:12:51.128Z,20.50
2023-01-09T06:15:18.113Z,20.17
2023-01-09T06:17:44.710Z,84.65
2023-01-09T06:20:11.963Z,25.45
2023-01-09T06:22:38.817Z,22.50
2023-01-09T06:25:05.888Z,20.50
2023-01-09T06:27:32.439Z,14.90
2023-01-09T06:29:59.061Z,24.17
2023-01-09T06:32:28.680Z,11.20
2023-01-09T06:34:55.290Z,10.93
2023-01-09T06:37:24.074Z,10.80
2023-01-09T06:39:55.337Z,8.90
2023-01-09T06:42:24.431Z,11.35
2023-01-09T06:44:50.980Z,10.77
2023-01-09T06:47:17.727Z,10.95
2023-01-09T06:49:44.338Z,9.13
2023-01-09T06:52:13.834Z,8.88
2023-01-09T06:54:40.376Z,9.48
2023-01-09T06:57:07.011Z,7.47
2023-01-09T06:59:33.657Z,5.15
2023-01-09T07:02:00.263Z,3.58
2023-01-09T07:04:27.016Z,3.25
2023-01-09T07:06:53.567Z,4.35
2023-01-09T07:09:20.095Z,3.10
2023-01-09T07:11:46.723Z,2.80
2023-01-09T07:14:13.385Z,2.00
2023-01-09T07:16:40.194Z,1.85
2023-01-09T07:19:06.751Z,3.40
2023-01-09T07:21:33.331Z,2.40
2023-01-09T07:23:59.938Z,2.83
2023-01-09T07:26:26.491Z,1.35
2023-01-09T07:28:53.143Z,2.33
2023-01-09T07:31:19.763Z,6.63
2023-01-09T07:33:46.325Z,2.55
2023-01-09T07:36:12.916Z,1.98
2023-01-09T07:38:39.725Z,2.03
2023-01-09T07:41:06.484Z,2.83
2023-01-09T07:43:33.096Z,5.03
2023-01-09T07:45:59.709Z,2.85
2023-01-09T07:48:26.343Z,2.08
2023-01-09T07:50:52.936Z,2.38
2023-01-09T07:53:19.537Z,9.23
2023-01-09T07:55:48.522Z,7.53
2023-01-09T07:58:17.437Z,1.88
2023-01-09T08:00:46.629Z,2.03
2023-01-09T08:03:13.234Z,1.88
2023-01-09T08:05:39.854Z,1.40
2023-01-09T08:08:07.163Z,2.05
2023-01-09T08:10:33.761Z,1.17
2023-01-09T08:13:00.433Z,2.05
2023-01-09T08:15:30.843Z,0.80
2023-01-09T08:17:59.658Z,0.93
2023-01-09T08:20:27.602Z,0.70
2023-01-09T08:22:55.114Z,0.60
2023-01-09T08:25:21.737Z,0.82
2023-01-09T08:27:48.376Z,0.98
2023-01-09T08:30:16.072Z,1.30
2023-01-09T08:32:49.272Z,0.40
2023-01-09T08:35:15.890Z,0.88
2023-01-09T08:37:47.245Z,1.90
2023-01-09T08:40:15.645Z,1.55
2023-01-09T08:43:00.870Z,4.22
2023-01-09T08:45:49.007Z,2.22
2023-01-09T08:48:17.727Z,0.63
2023-01-09T08:50:44.749Z,3.05
2023-01-09T08:53:11.762Z,1.45
2023-01-09T08:55:38.843Z,1.83
2023-01-09T08:58:05.431Z,1.38
2023-01-09T09:00:34.612Z,1.40
2023-01-09T09:03:04.113Z,0.98
2023-01-09T09:05:34.497Z,1.55
2023-01-09T09:08:02.661Z,1.23
2023-01-09T09:10:30.028Z,1.27
2023-01-09T09:12:58.316Z,1.52
2023-01-09T09:15:26.665Z,0.60
2023-01-09T09:17:55.605Z,2.50
2023-01-09T09:20:23.229Z,0.80
2023-01-09T09:22:50.210Z,2.13
2023-01-09T09:25:19.494Z,2.20
2023-01-09T09:27:46.558Z,1.85
2023-01-09T09:30:15.065Z,1.08
2023-01-09T09:32:41.958Z,1.95
2023-01-09T09:35:09.481Z,1.98
2023-01-09T09:37:39.224Z,0.60
2023-01-09T09:40:18.074Z,1.58
2023-01-09T09:43:29.996Z,1.17
2023-01-09T09:46:01.054Z,1.15
2023-01-09T09:48:41.327Z,1.17
2023-01-09T09:51:29.689Z,1.75
2023-01-09T09:54:05.489Z,2.25
2023-01-09T09:56:36.279Z,1.42
2023-01-09T09:59:07.799Z,1.33
2023-01-09T10:01:39.119Z,1.33
2023-01-09T10:04:16.703Z,1.92
2023-01-09T10:06:51.523Z,1.27
2023-01-09T10:09:40.077Z,1.33
2023-01-09T10:12:38.392Z,2.33
2023-01-09T10:15:23.781Z,3.75
2023-01-09T10:18:07.032Z,1.25
2023-01-09T10:20:44.768Z,2.05
2023-01-09T10:23:28.822Z,5.28
2023-01-09T10:26:30.836Z,4.22
2023-01-09T10:29:15.710Z,4.38
2023-01-09T10:32:04.682Z,3.33
2023-01-09T10:34:53.813Z,2.47
2023-01-09T10:37:25.172Z,1.10
2023-01-09T10:40:08.525Z,3.67
2023-01-09T10:42:54.581Z,4.70
2023-01-09T10:45:40.362Z,3.25
2023-01-09T10:48:20.825Z,1.48
2023-01-09T10:50:50.308Z,3.97
2023-01-09T10:53:22.225Z,3.47
2023-01-09T10:55:55.285Z,2.80
2023-01-09T10:58:22.915Z,3.20
2023-01-09T11:00:51.031Z,5.00
2023-01-09T11:03:20.416Z,2.38
2023-01-09T11:05:59.012Z,1.42
2023-01-09T11:08:35.339Z,2.55
2023-01-09T11:11:03.281Z,3.20
2023-01-09T11:13:34.202Z,3.78
2023-01-09T11:16:11.051Z,4.03
2023-01-09T11:18:51.983Z,1.85
2023-01-09T11:21:27.841Z,2.10
2023-01-09T11:24:26.668Z,2.08
2023-01-09T11:27:14.809Z,3.50
2023-01-09T11:29:42.224Z,3.08
2023-01-09T11:32:29.752Z,2.97
2023-01-09T11:34:56.677Z,2.47
2023-01-09T11:37:31.021Z,3.15
2023-01-09T11:40:00.498Z,2.70
2023-01-09T11:42:48.084Z,3.17
2023-01-09T11:45:17.879Z,4.35
2023-01-09T11:47:46.917Z,2.97
2023-01-09T11:50:25.404Z,3.80
2023-01-09T11:53:15.494Z,2.47
2023-01-09T11:55:43.505Z,3.45
2023-01-09T11:58:18.667Z,3.17
2023-01-09T12:01:14.702Z,4.65
2023-01-09T12:04:16.264Z,3.63
2023-01-09T12:06:48.737Z,9.48
2023-01-09T12:09:35.350Z,1.77
2023-01-09T12:12:12.426Z,2.05
2023-01-09T12:15:10.043Z,3.28
2023-01-09T12:18:23.969Z,3.70
2023-01-09T12:20:57.905Z,4.25
2023-01-09T12:23:42.808Z,5.97
2023-01-09T12:26:24.133Z,3.25
2023-01-09T12:29:00.165Z,2.60
2023-01-09T12:31:55.578Z,2.95
2023-01-09T12:34:57.131Z,3.05
2023-01-09T12:38:05.382Z,2.83
2023-01-09T12:40:44.260Z,3.80
2023-01-09T12:43:39.322Z,3.95
2023-01-09T12:46:22.161Z,2.90
2023-01-09T12:49:00.653Z,9.20
2023-01-09T12:51:27.316Z,9.40
2023-01-09T12:53:59.600Z,9.25
2023-01-09T12:56:40.394Z,4.45
2023-01-09T12:59:20.691Z,13.45
2023-01-09T13:01:49.937Z,6.25
2023-01-09T13:04:56.228Z,4.20
2023-01-09T13:07:38.438Z,7.75
2023-01-09T13:10:17.349Z,13.60
2023-01-09T13:12:47.746Z,6.72
2023-01-09T13:15:32.150Z,7.68
2023-01-09T13:18:11.322Z,7.80
2023-01-09T13:20:47.028Z,8.55
2023-01-09T13:23:28.647Z,6.35
2023-01-09T13:25:59.232Z,6.53
2023-01-09T13:28:35.437Z,4.93
2023-01-09T13:31:43.524Z,3.22
2023-01-09T13:34:21.872Z,50.38
2023-01-09T13:36:52.447Z,8.90
2023-01-09T13:39:26.183Z,5.38
2023-01-09T13:44:42.359Z,5.45
2023-01-09T13:47:24.812Z,5.07
2023-01-09T13:49:51.513Z,4.32
2023-01-09T13:52:53.845Z,3.00
2023-01-09T13:55:20.536Z,3.33
2023-01-09T13:58:05.624Z,23.27
2023-01-09T14:00:35.155Z,33.67
2023-01-09T14:03:18.115Z,18.58
2023-01-09T14:05:44.644Z,7.25
2023-01-09T14:08:19.550Z,7.93
2023-01-09T14:10:57.706Z,5.78
2023-01-09T14:13:53.243Z,4.50
2023-01-09T14:16:23.864Z,7.95
2023-01-09T14:18:55.483Z,3.65
2023-01-09T14:21:22.096Z,7.13
2023-01-09T14:24:01.771Z,4.22
2023-01-09T14:26:55.270Z,8.00
2023-01-09T14:29:29.532Z,11.40
2023-01-09T14:32:20.888Z,7.47
2023-01-09T14:34:58.681Z,5.68
2023-01-09T14:37:28.132Z,7.85
2023-01-09T14:39:56.336Z,4.22
2023-01-09T14:42:27.612Z,5.03
2023-01-09T14:45:12.403Z,9.10
2023-01-09T14:47:48.238Z,6.65
2023-01-09T14:50:17.678Z,5.63
2023-01-09T14:52:57.283Z,8.52
2023-01-09T14:55:34.563Z,6.90
2023-01-09T14:58:36.021Z,9.93
2023-01-09T15:01:04.682Z,13.30
2023-01-09T15:03:44.890Z,8.38
2023-01-09T15:06:27.061Z,8.45
2023-01-09T15:09:01.432Z,7.30
2023-01-09T15:11:28.915Z,5.57
2023-01-09T15:13:59.015Z,9.52
2023-01-09T15:16:27.170Z,7.68
2023-01-09T15:19:00.830Z,5.43
2023-01-09T15:21:30.977Z,7.82
2023-01-09T15:24:18.833Z,12.45
2023-01-09T15:26:55.667Z,7.20
2023-01-09T15:29:22.908Z,8.63
2023-01-09T15:32:03.363Z,6.03
2023-01-09T15:34:30.104Z,6.10
2023-01-09T15:36:56.885Z,9.30
2023-01-09T15:39:31.382Z,7.72
2023-01-09T15:42:18.946Z,9.77
2023-01-09T15:44:49.027Z,11.77
2023-01-09T15:47:27.669Z,23.17
2023-01-09T15:49:56.695Z,16.63
2023-01-09T15:52:23.715Z,29.02
2023-01-09T15:54:50.838Z,25.85
2023-01-09T15:57:26.487Z,19.02
2023-01-09T15:59:56.904Z,8.88
2023-01-09T16:02:44.329Z,6.45
2023-01-09T16:05:16.521Z,9.10
2023-01-09T16:07:51.331Z,10.00
2023-01-09T16:10:23.928Z,9.52
2023-01-09T16:12:52.710Z,9.48
2023-01-09T16:15:20.616Z,11.23
2023-01-09T16:18:06.654Z,11.50
2023-01-09T16:20:33.238Z,10.52
2023-01-09T16:23:01.363Z,14.57
2023-01-09T16:25:36.993Z,9.68
2023-01-09T16:31:02.981Z,16.80
2023-01-09T16:33:34.290Z,14.20
2023-01-09T16:36:02.614Z,14.60
2023-01-09T16:38:29.375Z,19.60
2023-01-09T16:41:18.886Z,17.02
2023-01-09T16:43:46.482Z,15.57
2023-01-09T16:46:15.148Z,14.65
2023-01-09T16:48:42.210Z,18.42
2023-01-09T16:51:16.056Z,18.15
2023-01-09T16:53:43.121Z,16.55
2023-01-09T16:56:22.198Z,20.13
2023-01-09T16:58:49.346Z,21.90
2023-01-09T17:01:16.732Z,20.42
2023-01-09T17:03:44.234Z,18.80
2023-01-09T17:06:28.012Z,19.85
2023-01-09T17:08:54.796Z,16.90
2023-01-09T17:11:24.532Z,16.40
2023-01-09T17:13:51.353Z,22.90
2023-01-09T17:16:18.535Z,23.92
2023-01-09T17:18:45.501Z,27.13
2023-01-09T17:21:23.689Z,30.65
2023-01-09T17:24:09.235Z,26.95
2023-01-09T17:26:56.694Z,35.40
2023-01-09T17:29:23.658Z,43.03
2023-01-09T17:31:52.770Z,29.60
2023-01-09T17:34:19.750Z,30.52
2023-01-09T17:36:46.509Z,31.30
2023-01-09T17:39:14.988Z,30.15
2023-01-09T17:41:42.011Z,28.85
2023-01-09T17:44:10.345Z,25.88
2023-01-09T17:46:41.858Z,21.63
2023-01-09T17:49:15.673Z,16.27
2023-01-09T17:51:44.764Z,13.77
2023-01-09T17:54:11.742Z,7.43
2023-01-09T17:56:40.780Z,6.22
2023-01-09T17:59:09.865Z,5.55
2023-01-09T18:01:36.631Z,3.97
2023-01-09T18:04:03.267Z,4.22
2023-01-09T18:06:29.863Z,5.53
2023-01-09T18:08:58.181Z,6.05
2023-01-09T18:11:25.378Z,103.05
2023-01-09T18:13:56.777Z,7.97
2023-01-09T18:16:25.810Z,5.18
2023-01-09T18:18:54.046Z,5.03
2023-01-09T18:21:23.217Z,5.15
2023-01-09T18:23:50.306Z,5.82
2023-01-09T18:26:21.070Z,6.13
2023-01-09T18:28:55.267Z,13.02
2023-01-09T18:31:23.892Z,12.25
2023-01-09T18:33:54.660Z,4.78
2023-01-09T18:36:24.376Z,5.55
2023-01-09T18:38:52.754Z,3.70
2023-01-09T18:41:19.909Z,4.20
2023-01-09T18:43:57.676Z,2.53
2023-01-09T18:46:25.151Z,4.88
2023-01-09T18:48:59.457Z,2.33
2023-01-09T18:51:28.281Z,3.53
2023-01-09T18:53:55.235Z,1.38
2023-01-09T18:56:22.421Z,2.53
2023-01-09T18:58:49.495Z,4.93
2023-01-09T19:01:17.037Z,2.80
2023-01-09T19:03:43.831Z,2.05
2023-01-09T19:06:10.971Z,10.93
2023-01-09T19:08:37.885Z,4.05
2023-01-09T19:11:07.163Z,4.65
2023-01-09T19:13:35.993Z,10.98
2023-01-09T19:16:04.298Z,5.43
2023-01-09T19:18:34.311Z,4.28
2023-01-09T19:21:04.690Z,4.80
2023-01-09T19:23:33.529Z,5.90
2023-01-09T19:26:08.813Z,3.00
2023-01-09T19:28:36.593Z,7.32
2023-01-09T19:31:03.357Z,3.92
2023-01-09T19:33:30.015Z,7.05
2023-01-09T19:35:56.589Z,5.03
2023-01-09T19:38:23.320Z,5.15
2023-01-09T19:40:50.306Z,4.15
2023-01-09T19:43:28.571Z,4.72
2023-01-09T19:45:56.733Z,5.18
2023-01-09T19:48:24.309Z,3.25
2023-01-09T19:50:50.846Z,5.15
2023-01-09T19:53:17.536Z,3.83
2023-01-09T19:55:44.119Z,7.20
2023-01-09T19:58:11.119Z,4.50
2023-01-09T20:00:40.789Z,4.43
2023-01-09T20:03:07.405Z,5.68
2023-01-09T20:05:34.044Z,4.40
2023-01-09T20:08:06.280Z,3.53
2023-01-09T20:10:33.600Z,3.80
2023-01-09T20:13:02.505Z,4.72
2023-01-09T20:15:29.113Z,4.65
2023-01-09T20:17:58.316Z,3.60
2023-01-09T20:20:24.968Z,2.95
2023-01-09T20:22:54.206Z,2.85
2023-01-09T20:25:20.799Z,5.35
2023-01-09T20:27:47.390Z,3.50
2023-01-09T20:30:15.872Z,8.73
2023-01-09T20:32:44.607Z,3.88
2023-01-09T20:35:11.213Z,3.30
2023-01-09T20:37:40.052Z,3.60
2023-01-09T20:40:07.111Z,4.35
2023-01-09T20:42:33.647Z,5.03
2023-01-09T20:45:00.219Z,4.85
2023-01-09T20:47:26.819Z,4.63
2023-01-09T20:49:53.506Z,1.77
2023-01-09T20:52:22.605Z,3.00
2023-01-09T20:54:51.639Z,2.25
2023-01-09T20:57:18.316Z,4.15
2023-01-09T20:59:44.989Z,2.90
2023-01-09T21:02:14.848Z,5.65
2023-01-09T21:04:41.576Z,2.63
2023-01-09T21:07:11.109Z,5.75
2023-01-09T21:09:37.927Z,2.55
2023-01-09T21:12:24.692Z,4.32
2023-01-09T21:14:51.923Z,5.00
2023-01-09T21:17:18.724Z,4.25
2023-01-09T21:19:49.851Z,2.92
2023-01-09T21:22:17.048Z,5.45
2023-01-09T21:24:43.736Z,4.35
2023-01-09T21:27:10.458Z,7.45
2023-01-09T21:29:37.346Z,6.57
2023-01-09T21:32:04.102Z,4.07
2023-01-09T21:34:30.879Z,8.77
2023-01-09T21:36:57.643Z,7.72
2023-01-09T21:39:24.369Z,4.55
2023-01-09T21:42:09.442Z,6.28
2023-01-09T21:44:54.868Z,14.88
2023-01-09T21:47:21.457Z,30.67
2023-01-09T21:49:48.432Z,4.97
2023-01-09T21:52:15.311Z,3.15
2023-01-09T21:54:42.143Z,3.95
2023-01-09T21:57:11.371Z,4.72
2023-01-09T21:59:38.293Z,4.40
2023-01-09T22:02:04.776Z,3.53
2023-01-09T22:04:32.380Z,3.67
2023-01-09T22:06:58.942Z,3.38
2023-01-09T22:09:25.509Z,5.00
2023-01-09T22:11:52.014Z,3.75
2023-01-09T22:14:19.784Z,1.92
2023-01-09T22:16:46.532Z,4.93
2023-01-09T22:19:14.808Z,1.73
2023-01-09T22:21:41.328Z,3.30
2023-01-09T22:24:08.008Z,3.10
2023-01-09T22:26:35.174Z,1.55
2023-01-09T22:29:03.844Z,4.20
2023-01-09T22:31:32.698Z,2.15
2023-01-09T22:34:01.003Z,3.63
2023-01-09T22:36:29.584Z,3.95
2023-01-09T22:38:58.293Z,2.95
2023-01-09T22:41:29.733Z,1.73
2023-01-09T22:43:56.446Z,1.25
2023-01-09T22:46:22.999Z,3.20
2023-01-09T22:48:49.532Z,4.60
2023-01-09T22:51:18.448Z,1.95
2023-01-09T22:53:45.736Z,2.45
2023-01-09T22:56:17.331Z,1.90
2023-01-09T22:58:44.766Z,1.98
2023-01-09T23:01:12.277Z,4.07
2023-01-09T23:03:39.605Z,1.40
2023-01-09T23:06:12.270Z,2.17
2023-01-09T23:08:39.577Z,3.45
2023-01-09T23:11:09.399Z,2.58
2023-01-09T23:13:35.985Z,1.58
2023-01-09T23:16:03.472Z,1.40
2023-01-09T23:18:30.275Z,2.47
2023-01-09T23:21:02.659Z,2.33
2023-01-09T23:23:30.866Z,1.23
2023-01-09T23:26:00.467Z,1.42
2023-01-09T23:28:27.702Z,2.10
2023-01-09T23:30:54.770Z,1.15
2023-01-09T23:33:21.336Z,1.52
2023-01-09T23:35:51.100Z,2.08
2023-01-09T23:38:17.609Z,3.47
2023-01-09T23:40:44.090Z,2.85
2023-01-09T23:43:12.142Z,1.20
2023-01-09T23:45:43.728Z,1.23
2023-01-09T23:48:13.021Z,3.55
2023-01-09T23:50:42.293Z,3.08
2023-01-09T23:53:09.283Z,1.52
2023-01-09T23:55:35.960Z,2.47
2023-01-09T23:58:02.474Z,2.83
